sensor_id;sensor_type;location;lat;lon;timestamp;P1;durP1;ratioP1;P2;durP2;ratioP2
40717;SDS011;26405;51.850;-2.246;2023-11-21T00:02:18;6.00;;;1.60;;
40717;SDS011;26405;51.850;-2.246;2023-11-21T00:04:53;2.75;;;1.58;;
40717;SDS011;26405;51.850;-2.246;2023-11-21T00:07:18;3.63;;;1.60;;
40717;SDS011;26405;51.850;-2.246;2023-11-21T00:09:43;5.53;;;1.80;;
40717;SDS011;26405;51.850;-2.246;2023-11-21T00:12:09;5.82;;;1.80;;
40717;SDS011;26405;51.850;-2.246;2023-11-21T00:14:35;7.35;;;3.20;;
40717;SDS011;26405;51.850;-2.246;2023-11-21T00:17:01;5.85;;;1.98;;
40717;SDS011;26405;51.850;-2.246;2023-11-21T00:19:26;5.45;;;2.08;;
40717;SDS011;26405;51.850;-2.246;2023-11-21T00:21:51;5.75;;;1.98;;
40717;SDS011;26405;51.850;-2.246;2023-11-21T00:24:16;7.15;;;2.05;;
40717;SDS011;26405;51.850;-2.246;2023-11-21T00:26:42;3.83;;;1.70;;
40717;SDS011;26405;51.850;-2.246;2023-11-21T00:29:07;4.60;;;1.67;;
40717;SDS011;26405;51.850;-2.246;2023-11-21T00:31:34;3.17;;;1.58;;
40717;SDS011;26405;51.850;-2.246;2023-11-21T00:33:59;2.65;;;1.42;;
40717;SDS011;26405;51.850;-2.246;2023-11-21T00:36:24;2.40;;;1.48;;
40717;SDS011;26405;51.850;-2.246;2023-11-21T00:38:51;6.18;;;1.77;;
40717;SDS011;26405;51.850;-2.246;2023-11-21T00:41:16;4.03;;;1.55;;
40717;SDS011;26405;51.850;-2.246;2023-11-21T00:43:41;3.13;;;1.52;;
40717;SDS011;26405;51.850;-2.246;2023-11-21T00:46:07;3.00;;;1.63;;
40717;SDS011;26405;51.850;-2.246;2023-11-21T00:48:32;2.85;;;1.60;;
40717;SDS011;26405;51.850;-2.246;2023-11-21T00:50:58;2.58;;;1.40;;
40717;SDS011;26405;51.850;-2.246;2023-11-21T00:53:23;5.15;;;1.65;;
40717;SDS011;26405;51.850;-2.246;2023-11-21T00:55:48;3.75;;;1.90;;
40717;SDS011;26405;51.850;-2.246;2023-11-21T00:58:14;3.08;;;1.65;;
40717;SDS011;26405;51.850;-2.246;2023-11-21T01:00:39;4.25;;;1.70;;
40717;SDS011;26405;51.850;-2.246;2023-11-21T01:03:05;2.63;;;1.63;;
40717;SDS011;26405;51.850;-2.246;2023-11-21T01:05:30;5.32;;;1.80;;
40717;SDS011;26405;51.850;-2.246;2023-11-21T01:10:58;3.75;;;1.80;;
40717;SDS011;26405;51.850;-2.246;2023-11-21T01:13:24;4.47;;;2.00;;
40717;SDS011;26405;51.850;-2.246;2023-11-21T01:15:53;4.05;;;1.60;;
40717;SDS011;26405;51.850;-2.246;2023-11-21T01:18:18;3.20;;;1.92;;
40717;SDS011;26405;51.850;-2.246;2023-11-21T01:20:44;4.15;;;2.10;;
40717;SDS011;26405;51.850;-2.246;2023-11-21T01:23:12;3.35;;;2.00;;
40717;SDS011;26405;51.850;-2.246;2023-11-21T01:25:37;3.50;;;1.77;;
40717;SDS011;26405;51.850;-2.246;2023-11-21T01:28:02;3.95;;;2.03;;
40717;SDS011;26405;51.850;-2.246;2023-11-21T01:30:28;6.47;;;2.10;;
40717;SDS011;26405;51.850;-2.246;2023-11-21T01:32:53;3.67;;;1.70;;
40717;SDS011;26405;51.850;-2.246;2023-11-21T01:35:18;4.90;;;2.10;;
40717;SDS011;26405;51.850;-2.246;2023-11-21T01:37:44;3.28;;;2.13;;
40717;SDS011;26405;51.850;-2.246;2023-11-21T01:40:09;5.30;;;2.30;;
40717;SDS011;26405;51.850;-2.246;2023-11-21T01:42:38;4.82;;;2.10;;
40717;SDS011;26405;51.850;-2.246;2023-11-21T01:45:04;6.18;;;2.10;;
40717;SDS011;26405;51.850;-2.246;2023-11-21T01:47:31;5.03;;;1.98;;
40717;SDS011;26405;51.850;-2.246;2023-11-21T01:49:56;6.78;;;2.08;;
40717;SDS011;26405;51.850;-2.246;2023-11-21T01:52:22;7.20;;;2.20;;
40717;SDS011;26405;51.850;-2.246;2023-11-21T01:54:47;4.63;;;1.90;;
40717;SDS011;26405;51.850;-2.246;2023-11-21T01:57:13;4.68;;;2.08;;
40717;SDS011;26405;51.850;-2.246;2023-11-21T01:59:38;4.18;;;2.15;;
40717;SDS011;26405;51.850;-2.246;2023-11-21T02:02:07;4.05;;;1.88;;
40717;SDS011;26405;51.850;-2.246;2023-11-21T02:04:33;4.22;;;2.15;;
40717;SDS011;26405;51.850;-2.246;2023-11-21T02:06:58;4.18;;;2.00;;
40717;SDS011;26405;51.850;-2.246;2023-11-21T02:09:25;4.60;;;2.00;;
40717;SDS011;26405;51.850;-2.246;2023-11-21T02:11:50;4.88;;;2.00;;
40717;SDS011;26405;51.850;-2.246;2023-11-21T02:14:16;4.90;;;2.20;;
40717;SDS011;26405;51.850;-2.246;2023-11-21T02:16:45;4.10;;;1.95;;
40717;SDS011;26405;51.850;-2.246;2023-11-21T02:19:12;5.78;;;2.25;;
40717;SDS011;26405;51.850;-2.246;2023-11-21T02:21:42;3.83;;;1.92;;
40717;SDS011;26405;51.850;-2.246;2023-11-21T02:24:09;3.03;;;2.08;;
40717;SDS011;26405;51.850;-2.246;2023-11-21T02:26:35;3.28;;;1.88;;
40717;SDS011;26405;51.850;-2.246;2023-11-21T02:29:00;6.50;;;2.05;;
40717;SDS011;26405;51.850;-2.246;2023-11-21T02:31:25;2.33;;;1.83;;
40717;SDS011;26405;51.850;-2.246;2023-11-21T02:33:52;6.23;;;1.97;;
40717;SDS011;26405;51.850;-2.246;2023-11-21T02:36:18;3.90;;;1.83;;
40717;SDS011;26405;51.850;-2.246;2023-11-21T02:38:43;5.07;;;2.05;;
40717;SDS011;26405;51.850;-2.246;2023-11-21T02:41:08;2.42;;;1.70;;
40717;SDS011;26405;51.850;-2.246;2023-11-21T02:43:33;5.18;;;1.73;;
40717;SDS011;26405;51.850;-2.246;2023-11-21T02:45:59;3.63;;;1.80;;
40717;SDS011;26405;51.850;-2.246;2023-11-21T02:48:24;3.28;;;1.73;;
40717;SDS011;26405;51.850;-2.246;2023-11-21T02:50:50;4.43;;;1.83;;
40717;SDS011;26405;51.850;-2.246;2023-11-21T02:53:18;5.25;;;2.22;;
40717;SDS011;26405;51.850;-2.246;2023-11-21T02:55:43;2.88;;;1.70;;
40717;SDS011;26405;51.850;-2.246;2023-11-21T02:58:09;3.45;;;1.90;;
40717;SDS011;26405;51.850;-2.246;2023-11-21T03:00:34;2.92;;;1.95;;
40717;SDS011;26405;51.850;-2.246;2023-11-21T03:02:59;2.58;;;1.90;;
40717;SDS011;26405;51.850;-2.246;2023-11-21T03:05:25;4.18;;;1.75;;
40717;SDS011;26405;51.850;-2.246;2023-11-21T03:07:50;2.83;;;1.90;;
40717;SDS011;26405;51.850;-2.246;2023-11-21T03:10:16;2.15;;;1.77;;
40717;SDS011;26405;51.850;-2.246;2023-11-21T03:12:41;6.18;;;1.90;;
40717;SDS011;26405;51.850;-2.246;2023-11-21T03:15:07;4.70;;;2.00;;
40717;SDS011;26405;51.850;-2.246;2023-11-21T03:17:33;3.88;;;1.95;;
40717;SDS011;26405;51.850;-2.246;2023-11-21T03:19:59;2.78;;;1.88;;
40717;SDS011;26405;51.850;-2.246;2023-11-21T03:22:25;4.53;;;1.90;;
40717;SDS011;26405;51.850;-2.246;2023-11-21T03:24:50;2.22;;;1.67;;
40717;SDS011;26405;51.850;-2.246;2023-11-21T03:27:15;3.67;;;1.90;;
40717;SDS011;26405;51.850;-2.246;2023-11-21T03:29:41;2.25;;;1.45;;
40717;SDS011;26405;51.850;-2.246;2023-11-21T03:32:06;1.92;;;1.73;;
40717;SDS011;26405;51.850;-2.246;2023-11-21T03:34:32;4.32;;;1.60;;
40717;SDS011;26405;51.850;-2.246;2023-11-21T03:36:57;5.57;;;1.80;;
40717;SDS011;26405;51.850;-2.246;2023-11-21T03:39:23;6.37;;;2.23;;
40717;SDS011;26405;51.850;-2.246;2023-11-21T03:41:50;3.25;;;1.80;;
40717;SDS011;26405;51.850;-2.246;2023-11-21T03:44:17;2.37;;;1.50;;
40717;SDS011;26405;51.850;-2.246;2023-11-21T03:46:43;5.25;;;1.60;;
40717;SDS011;26405;51.850;-2.246;2023-11-21T03:49:08;2.83;;;1.70;;
40717;SDS011;26405;51.850;-2.246;2023-11-21T03:51:33;1.60;;;1.50;;
40717;SDS011;26405;51.850;-2.246;2023-11-21T03:53:59;3.85;;;1.73;;
40717;SDS011;26405;51.850;-2.246;2023-11-21T03:56:24;1.90;;;1.50;;
40717;SDS011;26405;51.850;-2.246;2023-11-21T03:58:49;6.50;;;1.65;;
40717;SDS011;26405;51.850;-2.246;2023-11-21T04:01:19;3.60;;;1.70;;
40717;SDS011;26405;51.850;-2.246;2023-11-21T04:03:45;3.70;;;1.63;;
40717;SDS011;26405;51.850;-2.246;2023-11-21T04:06:11;1.95;;;1.40;;
40717;SDS011;26405;51.850;-2.246;2023-11-21T04:08:36;3.95;;;1.38;;
40717;SDS011;26405;51.850;-2.246;2023-11-21T04:11:01;1.65;;;0.98;;
40717;SDS011;26405;51.850;-2.246;2023-11-21T04:13:27;2.33;;;1.23;;
40717;SDS011;26405;51.850;-2.246;2023-11-21T04:15:52;0.88;;;0.85;;
40717;SDS011;26405;51.850;-2.246;2023-11-21T04:18:17;3.08;;;1.33;;
40717;SDS011;26405;51.850;-2.246;2023-11-21T04:20:42;1.27;;;1.13;;
40717;SDS011;26405;51.850;-2.246;2023-11-21T04:23:08;1.45;;;0.95;;
40717;SDS011;26405;51.850;-2.246;2023-11-21T04:28:00;1.30;;;0.90;;
40717;SDS011;26405;51.850;-2.246;2023-11-21T04:30:26;1.52;;;1.30;;
40717;SDS011;26405;51.850;-2.246;2023-11-21T04:35:18;3.37;;;1.13;;
40717;SDS011;26405;51.850;-2.246;2023-11-21T04:37:43;2.25;;;1.10;;
40717;SDS011;26405;51.850;-2.246;2023-11-21T04:40:09;1.38;;;1.27;;
40717;SDS011;26405;51.850;-2.246;2023-11-21T04:42:34;2.38;;;1.30;;
40717;SDS011;26405;51.850;-2.246;2023-11-21T04:45:01;1.50;;;1.23;;
40717;SDS011;26405;51.850;-2.246;2023-11-21T04:47:26;2.30;;;1.15;;
40717;SDS011;26405;51.850;-2.246;2023-11-21T04:49:51;1.30;;;1.17;;
40717;SDS011;26405;51.850;-2.246;2023-11-21T04:52:17;1.38;;;1.10;;
40717;SDS011;26405;51.850;-2.246;2023-11-21T04:54:42;2.33;;;1.20;;
40717;SDS011;26405;51.850;-2.246;2023-11-21T04:57:08;2.15;;;1.20;;
40717;SDS011;26405;51.850;-2.246;2023-11-21T04:59:34;1.27;;;1.08;;
40717;SDS011;26405;51.850;-2.246;2023-11-21T05:01:59;1.70;;;1.27;;
40717;SDS011;26405;51.850;-2.246;2023-11-21T05:04:25;1.60;;;0.98;;
40717;SDS011;26405;51.850;-2.246;2023-11-21T05:06:50;1.70;;;1.13;;
40717;SDS011;26405;51.850;-2.246;2023-11-21T05:09:16;5.25;;;1.23;;
40717;SDS011;26405;51.850;-2.246;2023-11-21T05:11:41;2.03;;;1.30;;
40717;SDS011;26405;51.850;-2.246;2023-11-21T05:14:06;1.77;;;1.27;;
40717;SDS011;26405;51.850;-2.246;2023-11-21T05:16:32;1.88;;;1.15;;
40717;SDS011;26405;51.850;-2.246;2023-11-21T05:18:58;1.70;;;1.27;;
40717;SDS011;26405;51.850;-2.246;2023-11-21T05:21:26;3.05;;;1.15;;
40717;SDS011;26405;51.850;-2.246;2023-11-21T05:23:51;1.20;;;0.90;;
40717;SDS011;26405;51.850;-2.246;2023-11-21T05:26:16;1.77;;;1.30;;
40717;SDS011;26405;51.850;-2.246;2023-11-21T05:28:42;1.90;;;1.15;;
40717;SDS011;26405;51.850;-2.246;2023-11-21T05:31:07;2.78;;;1.25;;
40717;SDS011;26405;51.850;-2.246;2023-11-21T05:33:32;1.92;;;1.08;;
40717;SDS011;26405;51.850;-2.246;2023-11-21T05:35:58;2.58;;;1.33;;
40717;SDS011;26405;51.850;-2.246;2023-11-21T05:38:23;5.20;;;1.10;;
40717;SDS011;26405;51.850;-2.246;2023-11-21T05:40:49;1.77;;;1.30;;
40717;SDS011;26405;51.850;-2.246;2023-11-21T05:43:14;2.55;;;1.23;;
40717;SDS011;26405;51.850;-2.246;2023-11-21T05:45:40;1.98;;;1.10;;
40717;SDS011;26405;51.850;-2.246;2023-11-21T05:48:05;4.45;;;1.42;;
40717;SDS011;26405;51.850;-2.246;2023-11-21T05:50:31;1.95;;;1.15;;
40717;SDS011;26405;51.850;-2.246;2023-11-21T05:52:57;1.93;;;1.37;;
40717;SDS011;26405;51.850;-2.246;2023-11-21T05:55:24;1.70;;;1.20;;
40717;SDS011;26405;51.850;-2.246;2023-11-21T05:57:50;1.90;;;1.10;;
40717;SDS011;26405;51.850;-2.246;2023-11-21T06:00:16;3.58;;;1.17;;
40717;SDS011;26405;51.850;-2.246;2023-11-21T06:02:45;1.48;;;1.02;;
40717;SDS011;26405;51.850;-2.246;2023-11-21T06:05:10;2.05;;;1.20;;
40717;SDS011;26405;51.850;-2.246;2023-11-21T06:07:37;4.78;;;1.30;;
40717;SDS011;26405;51.850;-2.246;2023-11-21T06:10:03;1.60;;;1.20;;
40717;SDS011;26405;51.850;-2.246;2023-11-21T06:12:31;2.60;;;1.13;;
40717;SDS011;26405;51.850;-2.246;2023-11-21T06:14:56;1.30;;;1.10;;
40717;SDS011;26405;51.850;-2.246;2023-11-21T06:17:21;3.40;;;1.25;;
40717;SDS011;26405;51.850;-2.246;2023-11-21T06:19:49;2.55;;;1.02;;
40717;SDS011;26405;51.850;-2.246;2023-11-21T06:22:14;1.98;;;1.10;;
40717;SDS011;26405;51.850;-2.246;2023-11-21T06:24:40;2.47;;;1.10;;
40717;SDS011;26405;51.850;-2.246;2023-11-21T06:27:07;1.23;;;1.00;;
40717;SDS011;26405;51.850;-2.246;2023-11-21T06:29:32;1.50;;;1.10;;
40717;SDS011;26405;51.850;-2.246;2023-11-21T06:31:58;2.80;;;1.27;;
40717;SDS011;26405;51.850;-2.246;2023-11-21T06:34:23;4.07;;;1.15;;
40717;SDS011;26405;51.850;-2.246;2023-11-21T06:36:49;4.45;;;1.52;;
40717;SDS011;26405;51.850;-2.246;2023-11-21T06:39:14;3.85;;;1.10;;
40717;SDS011;26405;51.850;-2.246;2023-11-21T06:44:06;1.75;;;1.08;;
40717;SDS011;26405;51.850;-2.246;2023-11-21T06:46:33;2.40;;;1.40;;
40717;SDS011;26405;51.850;-2.246;2023-11-21T06:48:58;3.90;;;1.13;;
40717;SDS011;26405;51.850;-2.246;2023-11-21T06:51:27;4.85;;;1.10;;
40717;SDS011;26405;51.850;-2.246;2023-11-21T06:53:52;1.17;;;1.08;;
40717;SDS011;26405;51.850;-2.246;2023-11-21T06:56:18;2.63;;;1.42;;
40717;SDS011;26405;51.850;-2.246;2023-11-21T06:58:44;1.90;;;1.40;;
40717;SDS011;26405;51.850;-2.246;2023-11-21T07:01:10;1.23;;;1.13;;
40717;SDS011;26405;51.850;-2.246;2023-11-21T07:03:36;2.03;;;1.08;;
40717;SDS011;26405;51.850;-2.246;2023-11-21T07:06:02;4.43;;;1.17;;
40717;SDS011;26405;51.850;-2.246;2023-11-21T07:08:27;1.20;;;1.10;;
40717;SDS011;26405;51.850;-2.246;2023-11-21T07:10:53;2.42;;;1.00;;
40717;SDS011;26405;51.850;-2.246;2023-11-21T07:13:18;2.47;;;1.27;;
40717;SDS011;26405;51.850;-2.246;2023-11-21T07:15:43;2.58;;;1.05;;
40717;SDS011;26405;51.850;-2.246;2023-11-21T07:18:09;2.17;;;1.50;;
40717;SDS011;26405;51.850;-2.246;2023-11-21T07:20:34;1.65;;;1.27;;
40717;SDS011;26405;51.850;-2.246;2023-11-21T07:22:59;2.00;;;1.20;;
40717;SDS011;26405;51.850;-2.246;2023-11-21T07:25:25;2.40;;;1.10;;
40717;SDS011;26405;51.850;-2.246;2023-11-21T07:27:51;1.67;;;1.15;;
40717;SDS011;26405;51.850;-2.246;2023-11-21T07:30:16;3.47;;;1.17;;
40717;SDS011;26405;51.850;-2.246;2023-11-21T07:32:42;4.65;;;1.25;;
40717;SDS011;26405;51.850;-2.246;2023-11-21T07:35:08;2.78;;;1.17;;
40717;SDS011;26405;51.850;-2.246;2023-11-21T07:37:33;1.30;;;1.00;;
40717;SDS011;26405;51.850;-2.246;2023-11-21T07:39:58;3.20;;;1.25;;
40717;SDS011;26405;51.850;-2.246;2023-11-21T07:42:24;3.88;;;1.40;;
40717;SDS011;26405;51.850;-2.246;2023-11-21T07:44:51;2.17;;;1.23;;
40717;SDS011;26405;51.850;-2.246;2023-11-21T07:47:17;3.47;;;1.20;;
40717;SDS011;26405;51.850;-2.246;2023-11-21T07:49:42;2.10;;;1.10;;
40717;SDS011;26405;51.850;-2.246;2023-11-21T07:52:09;3.03;;;1.20;;
40717;SDS011;26405;51.850;-2.246;2023-11-21T07:54:34;4.10;;;1.23;;
40717;SDS011;26405;51.850;-2.246;2023-11-21T07:57:01;2.53;;;1.10;;
40717;SDS011;26405;51.850;-2.246;2023-11-21T07:59:26;3.53;;;1.17;;
40717;SDS011;26405;51.850;-2.246;2023-11-21T08:01:51;1.90;;;1.20;;
40717;SDS011;26405;51.850;-2.246;2023-11-21T08:04:16;2.50;;;1.30;;
40717;SDS011;26405;51.850;-2.246;2023-11-21T08:06:42;5.07;;;1.20;;
40717;SDS011;26405;51.850;-2.246;2023-11-21T08:09:07;2.92;;;1.25;;
40717;SDS011;26405;51.850;-2.246;2023-11-21T08:11:33;1.33;;;1.00;;
40717;SDS011;26405;51.850;-2.246;2023-11-21T08:13:58;4.78;;;1.30;;
40717;SDS011;26405;51.850;-2.246;2023-11-21T08:16:24;3.08;;;0.95;;
40717;SDS011;26405;51.850;-2.246;2023-11-21T08:18:50;2.35;;;1.40;;
40717;SDS011;26405;51.850;-2.246;2023-11-21T08:21:15;2.10;;;1.10;;
40717;SDS011;26405;51.850;-2.246;2023-11-21T08:23:41;3.25;;;1.48;;
40717;SDS011;26405;51.850;-2.246;2023-11-21T08:26:06;2.50;;;1.13;;
40717;SDS011;26405;51.850;-2.246;2023-11-21T08:31:23;3.78;;;1.42;;
40717;SDS011;26405;51.850;-2.246;2023-11-21T08:33:48;2.88;;;1.50;;
40717;SDS011;26405;51.850;-2.246;2023-11-21T08:36:13;4.93;;;1.40;;
40717;SDS011;26405;51.850;-2.246;2023-11-21T08:38:38;3.83;;;1.23;;
40717;SDS011;26405;51.850;-2.246;2023-11-21T08:41:05;4.20;;;1.50;;
40717;SDS011;26405;51.850;-2.246;2023-11-21T08:43:32;4.45;;;1.20;;
40717;SDS011;26405;51.850;-2.246;2023-11-21T08:49:02;4.35;;;1.55;;
40717;SDS011;26405;51.850;-2.246;2023-11-21T08:54:30;4.18;;;1.90;;
40717;SDS011;26405;51.850;-2.246;2023-11-21T08:56:56;3.90;;;1.55;;
40717;SDS011;26405;51.850;-2.246;2023-11-21T08:59:23;3.60;;;1.60;;
40717;SDS011;26405;51.850;-2.246;2023-11-21T09:01:49;3.75;;;1.52;;
40717;SDS011;26405;51.850;-2.246;2023-11-21T09:04:14;4.00;;;1.70;;
40717;SDS011;26405;51.850;-2.246;2023-11-21T09:06:39;5.18;;;1.77;;
40717;SDS011;26405;51.850;-2.246;2023-11-21T09:12:07;4.80;;;1.67;;
40717;SDS011;26405;51.850;-2.246;2023-11-21T09:14:37;1.88;;;1.50;;
40717;SDS011;26405;51.850;-2.246;2023-11-21T09:17:02;3.28;;;1.55;;
40717;SDS011;26405;51.850;-2.246;2023-11-21T09:19:28;5.03;;;1.60;;
40717;SDS011;26405;51.850;-2.246;2023-11-21T09:21:53;3.25;;;1.75;;
40717;SDS011;26405;51.850;-2.246;2023-11-21T09:24:31;3.75;;;1.60;;
40717;SDS011;26405;51.850;-2.246;2023-11-21T09:26:56;4.88;;;1.50;;
40717;SDS011;26405;51.850;-2.246;2023-11-21T09:29:21;1.58;;;1.25;;
40717;SDS011;26405;51.850;-2.246;2023-11-21T09:31:47;2.92;;;1.50;;
40717;SDS011;26405;51.850;-2.246;2023-11-21T09:34:12;3.63;;;1.50;;
40717;SDS011;26405;51.850;-2.246;2023-11-21T09:36:38;7.13;;;1.80;;
40717;SDS011;26405;51.850;-2.246;2023-11-21T09:39:04;2.78;;;1.52;;
40717;SDS011;26405;51.850;-2.246;2023-11-21T09:41:34;4.57;;;1.75;;
40717;SDS011;26405;51.850;-2.246;2023-11-21T09:44:04;5.28;;;1.63;;
40717;SDS011;26405;51.850;-2.246;2023-11-21T09:46:32;3.47;;;1.50;;
40717;SDS011;26405;51.850;-2.246;2023-11-21T09:52:01;9.00;;;1.88;;
40717;SDS011;26405;51.850;-2.246;2023-11-21T09:54:28;3.63;;;1.50;;
40717;SDS011;26405;51.850;-2.246;2023-11-21T10:02:42;4.55;;;1.52;;
40717;SDS011;26405;51.850;-2.246;2023-11-21T10:05:18;3.07;;;1.50;;
40717;SDS011;26405;51.850;-2.246;2023-11-21T10:07:47;5.22;;;1.77;;
40717;SDS011;26405;51.850;-2.246;2023-11-21T10:10:13;6.88;;;3.30;;
40717;SDS011;26405;51.850;-2.246;2023-11-21T10:15:23;3.65;;;1.77;;
40717;SDS011;26405;51.850;-2.246;2023-11-21T10:17:50;8.00;;;1.70;;
40717;SDS011;26405;51.850;-2.246;2023-11-21T10:20:35;4.72;;;1.60;;
40717;SDS011;26405;51.850;-2.246;2023-11-21T10:23:03;4.80;;;1.58;;
40717;SDS011;26405;51.850;-2.246;2023-11-21T10:25:37;2.38;;;1.42;;
40717;SDS011;26405;51.850;-2.246;2023-11-21T10:28:03;5.22;;;1.70;;
40717;SDS011;26405;51.850;-2.246;2023-11-21T10:30:40;3.80;;;1.70;;
40717;SDS011;26405;51.850;-2.246;2023-11-21T10:33:07;3.47;;;1.50;;
40717;SDS011;26405;51.850;-2.246;2023-11-21T10:38:07;3.40;;;1.30;;
40717;SDS011;26405;51.850;-2.246;2023-11-21T10:40:37;3.30;;;1.63;;
40717;SDS011;26405;51.850;-2.246;2023-11-21T10:43:06;3.53;;;1.58;;
40717;SDS011;26405;51.850;-2.246;2023-11-21T10:45:31;2.30;;;1.73;;
40717;SDS011;26405;51.850;-2.246;2023-11-21T10:47:56;2.53;;;1.40;;
40717;SDS011;26405;51.850;-2.246;2023-11-21T10:50:22;2.17;;;1.50;;
40717;SDS011;26405;51.850;-2.246;2023-11-21T10:55:55;2.92;;;1.67;;
40717;SDS011;26405;51.850;-2.246;2023-11-21T10:58:41;5.78;;;1.58;;
40717;SDS011;26405;51.850;-2.246;2023-11-21T11:01:17;4.80;;;1.60;;
40717;SDS011;26405;51.850;-2.246;2023-11-21T11:06:39;4.43;;;1.40;;
40717;SDS011;26405;51.850;-2.246;2023-11-21T11:09:17;2.38;;;1.70;;
40717;SDS011;26405;51.850;-2.246;2023-11-21T11:11:43;4.57;;;1.83;;
40717;SDS011;26405;51.850;-2.246;2023-11-21T11:14:11;4.20;;;1.80;;
40717;SDS011;26405;51.850;-2.246;2023-11-21T11:19:02;6.80;;;1.50;;
40717;SDS011;26405;51.850;-2.246;2023-11-21T11:24:36;4.72;;;1.60;;
40717;SDS011;26405;51.850;-2.246;2023-11-21T11:33:14;3.13;;;1.70;;
40717;SDS011;26405;51.850;-2.246;2023-11-21T11:36:01;3.75;;;1.60;;
40717;SDS011;26405;51.850;-2.246;2023-11-21T11:38:30;4.68;;;1.67;;
40717;SDS011;26405;51.850;-2.246;2023-11-21T11:40:56;5.40;;;1.80;;
40717;SDS011;26405;51.850;-2.246;2023-11-21T11:43:29;5.85;;;1.92;;
40717;SDS011;26405;51.850;-2.246;2023-11-21T11:49:04;6.45;;;2.00;;
40717;SDS011;26405;51.850;-2.246;2023-11-21T11:54:34;3.20;;;1.80;;
40717;SDS011;26405;51.850;-2.246;2023-11-21T11:57:18;6.50;;;2.03;;
40717;SDS011;26405;51.850;-2.246;2023-11-21T12:00:09;8.85;;;2.40;;
40717;SDS011;26405;51.850;-2.246;2023-11-21T12:02:38;6.03;;;1.98;;
40717;SDS011;26405;51.850;-2.246;2023-11-21T12:05:08;3.35;;;1.70;;
40717;SDS011;26405;51.850;-2.246;2023-11-21T12:07:43;3.53;;;1.73;;
40717;SDS011;26405;51.850;-2.246;2023-11-21T12:10:10;3.47;;;1.98;;
40717;SDS011;26405;51.850;-2.246;2023-11-21T12:12:36;6.28;;;2.00;;
40717;SDS011;26405;51.850;-2.246;2023-11-21T12:15:04;4.90;;;1.65;;
40717;SDS011;26405;51.850;-2.246;2023-11-21T12:17:30;9.10;;;2.17;;
40717;SDS011;26405;51.850;-2.246;2023-11-21T12:20:01;3.85;;;1.85;;
40717;SDS011;26405;51.850;-2.246;2023-11-21T12:22:28;5.25;;;2.20;;
40717;SDS011;26405;51.850;-2.246;2023-11-21T12:24:53;6.40;;;2.00;;
40717;SDS011;26405;51.850;-2.246;2023-11-21T12:27:20;6.22;;;2.00;;
40717;SDS011;26405;51.850;-2.246;2023-11-21T12:29:46;7.75;;;2.30;;
40717;SDS011;26405;51.850;-2.246;2023-11-21T12:32:11;6.40;;;2.15;;
40717;SDS011;26405;51.850;-2.246;2023-11-21T12:34:36;5.75;;;1.95;;
40717;SDS011;26405;51.850;-2.246;2023-11-21T12:39:29;6.40;;;1.87;;
40717;SDS011;26405;51.850;-2.246;2023-11-21T12:41:54;5.43;;;1.77;;
40717;SDS011;26405;51.850;-2.246;2023-11-21T12:44:19;7.13;;;2.30;;
40717;SDS011;26405;51.850;-2.246;2023-11-21T12:46:45;4.85;;;2.10;;
40717;SDS011;26405;51.850;-2.246;2023-11-21T12:49:11;3.67;;;1.95;;
40717;SDS011;26405;51.850;-2.246;2023-11-21T12:51:42;6.28;;;1.85;;
40717;SDS011;26405;51.850;-2.246;2023-11-21T12:54:08;6.05;;;2.30;;
40717;SDS011;26405;51.850;-2.246;2023-11-21T12:56:38;5.45;;;1.83;;
40717;SDS011;26405;51.850;-2.246;2023-11-21T12:59:03;7.93;;;2.05;;
40717;SDS011;26405;51.850;-2.246;2023-11-21T13:01:29;5.03;;;2.07;;
40717;SDS011;26405;51.850;-2.246;2023-11-21T13:03:59;5.15;;;2.55;;
40717;SDS011;26405;51.850;-2.246;2023-11-21T13:06:25;5.03;;;1.90;;
40717;SDS011;26405;51.850;-2.246;2023-11-21T13:08:51;6.63;;;2.20;;
40717;SDS011;26405;51.850;-2.246;2023-11-21T13:11:16;6.60;;;2.10;;
40717;SDS011;26405;51.850;-2.246;2023-11-21T13:13:42;5.15;;;1.80;;
40717;SDS011;26405;51.850;-2.246;2023-11-21T13:16:11;8.13;;;2.10;;
40717;SDS011;26405;51.850;-2.246;2023-11-21T13:18:36;6.20;;;1.70;;
40717;SDS011;26405;51.850;-2.246;2023-11-21T13:21:03;4.50;;;2.00;;
40717;SDS011;26405;51.850;-2.246;2023-11-21T13:23:35;4.43;;;1.83;;
40717;SDS011;26405;51.850;-2.246;2023-11-21T13:26:01;6.80;;;2.00;;
40717;SDS011;26405;51.850;-2.246;2023-11-21T13:28:29;4.47;;;1.67;;
40717;SDS011;26405;51.850;-2.246;2023-11-21T13:30:57;5.82;;;2.10;;
40717;SDS011;26405;51.850;-2.246;2023-11-21T13:33:27;6.25;;;2.30;;
40717;SDS011;26405;51.850;-2.246;2023-11-21T13:35:53;7.78;;;2.20;;
40717;SDS011;26405;51.850;-2.246;2023-11-21T13:38:20;7.72;;;2.05;;
40717;SDS011;26405;51.850;-2.246;2023-11-21T13:40:51;6.00;;;2.28;;
40717;SDS011;26405;51.850;-2.246;2023-11-21T13:43:21;4.72;;;2.20;;
40717;SDS011;26405;51.850;-2.246;2023-11-21T13:45:49;7.00;;;2.15;;
40717;SDS011;26405;51.850;-2.246;2023-11-21T13:48:37;4.03;;;1.88;;
40717;SDS011;26405;51.850;-2.246;2023-11-21T13:51:15;4.00;;;2.08;;
40717;SDS011;26405;51.850;-2.246;2023-11-21T13:53:46;8.40;;;2.30;;
40717;SDS011;26405;51.850;-2.246;2023-11-21T13:56:14;6.65;;;2.30;;
40717;SDS011;26405;51.850;-2.246;2023-11-21T13:58:44;7.85;;;2.40;;
40717;SDS011;26405;51.850;-2.246;2023-11-21T14:01:13;8.18;;;2.63;;
40717;SDS011;26405;51.850;-2.246;2023-11-21T14:03:57;4.65;;;1.90;;
40717;SDS011;26405;51.850;-2.246;2023-11-21T14:06:28;6.47;;;2.30;;
40717;SDS011;26405;51.850;-2.246;2023-11-21T14:08:59;5.53;;;2.00;;
40717;SDS011;26405;51.850;-2.246;2023-11-21T14:11:30;7.00;;;2.25;;
40717;SDS011;26405;51.850;-2.246;2023-11-21T14:13:55;5.65;;;1.80;;
40717;SDS011;26405;51.850;-2.246;2023-11-21T14:16:20;7.80;;;2.20;;
40717;SDS011;26405;51.850;-2.246;2023-11-21T14:18:46;5.35;;;2.00;;
40717;SDS011;26405;51.850;-2.246;2023-11-21T14:21:23;3.95;;;1.98;;
40717;SDS011;26405;51.850;-2.246;2023-11-21T14:23:49;7.20;;;2.40;;
40717;SDS011;26405;51.850;-2.246;2023-11-21T14:26:14;6.90;;;2.20;;
40717;SDS011;26405;51.850;-2.246;2023-11-21T14:28:40;7.18;;;2.00;;
40717;SDS011;26405;51.850;-2.246;2023-11-21T14:31:07;7.18;;;2.28;;
40717;SDS011;26405;51.850;-2.246;2023-11-21T14:33:32;4.20;;;2.20;;
40717;SDS011;26405;51.850;-2.246;2023-11-21T14:35:58;8.38;;;2.33;;
40717;SDS011;26405;51.850;-2.246;2023-11-21T14:38:24;4.75;;;2.00;;
40717;SDS011;26405;51.850;-2.246;2023-11-21T14:40:49;7.53;;;2.40;;
40717;SDS011;26405;51.850;-2.246;2023-11-21T14:43:14;6.38;;;2.40;;
40717;SDS011;26405;51.850;-2.246;2023-11-21T14:45:40;3.85;;;2.13;;
40717;SDS011;26405;51.850;-2.246;2023-11-21T14:48:06;7.65;;;2.35;;
40717;SDS011;26405;51.850;-2.246;2023-11-21T14:50:34;8.20;;;2.40;;
40717;SDS011;26405;51.850;-2.246;2023-11-21T14:53:19;6.80;;;2.30;;
40717;SDS011;26405;51.850;-2.246;2023-11-21T14:56:04;7.38;;;2.45;;
40717;SDS011;26405;51.850;-2.246;2023-11-21T14:58:29;7.07;;;2.30;;
40717;SDS011;26405;51.850;-2.246;2023-11-21T15:00:58;7.35;;;2.63;;
40717;SDS011;26405;51.850;-2.246;2023-11-21T15:03:27;11.38;;;3.00;;
40717;SDS011;26405;51.850;-2.246;2023-11-21T15:05:59;7.00;;;2.80;;
40717;SDS011;26405;51.850;-2.246;2023-11-21T15:08:35;6.93;;;3.20;;
40717;SDS011;26405;51.850;-2.246;2023-11-21T15:11:01;5.45;;;2.47;;
40717;SDS011;26405;51.850;-2.246;2023-11-21T15:13:32;7.85;;;2.58;;
40717;SDS011;26405;51.850;-2.246;2023-11-21T15:15:58;8.48;;;2.55;;
40717;SDS011;26405;51.850;-2.246;2023-11-21T15:18:32;7.43;;;2.35;;
40717;SDS011;26405;51.850;-2.246;2023-11-21T15:20:58;7.60;;;2.83;;
40717;SDS011;26405;51.850;-2.246;2023-11-21T15:23:23;6.63;;;2.42;;
40717;SDS011;26405;51.850;-2.246;2023-11-21T15:25:48;8.35;;;2.65;;
40717;SDS011;26405;51.850;-2.246;2023-11-21T15:28:14;7.85;;;2.70;;
40717;SDS011;26405;51.850;-2.246;2023-11-21T15:30:39;8.45;;;2.97;;
40717;SDS011;26405;51.850;-2.246;2023-11-21T15:33:04;11.38;;;2.97;;
40717;SDS011;26405;51.850;-2.246;2023-11-21T15:35:31;7.60;;;2.73;;